createdAt,value
2024-04-16T00:00:59.059Z,95.32
2024-04-16T00:01:59.260Z,95.32
2024-04-16T00:02:58.984Z,95.63
2024-04-16T00:03:58.983Z,95.69
2024-04-16T00:04:59.037Z,95.69
2024-04-16T00:05:58.893Z,95.79
2024-04-16T00:06:58.878Z,95.48
2024-04-16T00:07:58.851Z,94.90
2024-04-16T00:08:58.885Z,94.80
2024-04-16T00:09:58.855Z,94.90
2024-04-16T00:10:58.920Z,95.32
2024-04-16T00:11:58.802Z,95.53
2024-04-16T00:12:58.825Z,95.63
2024-04-16T00:13:58.783Z,95.63
2024-04-16T00:14:58.753Z,95.42
2024-04-16T00:15:58.766Z,95.47
2024-04-16T00:16:58.745Z,96.15
2024-04-16T00:17:58.786Z,96.67
2024-04-16T00:18:58.716Z,96.98
2024-04-16T00:19:58.689Z,96.98
2024-04-16T00:20:58.680Z,97.09
2024-04-16T00:21:58.707Z,96.72
2024-04-16T00:22:58.647Z,96.82
2024-04-16T00:23:58.637Z,97.03
2024-04-16T00:24:58.687Z,97.24
2024-04-16T00:25:58.608Z,97.24
2024-04-16T00:26:58.605Z,97.55
2024-04-16T00:27:58.665Z,97.75
2024-04-16T00:28:58.570Z,97.96
2024-04-16T00:29:58.549Z,98.07
2024-04-16T00:30:58.612Z,98.17
2024-04-16T00:31:58.574Z,98.38
2024-04-16T00:32:58.681Z,98.48
2024-04-16T00:33:58.555Z,98.38
2024-04-16T00:34:58.490Z,98.44
2024-04-16T00:35:58.501Z,98.44
2024-04-16T00:36:58.501Z,98.33
2024-04-16T00:37:58.473Z,97.92
2024-04-16T00:38:58.438Z,97.30
2024-04-16T00:39:58.451Z,96.98
2024-04-16T00:40:58.453Z,97.09
2024-04-16T00:41:58.400Z,97.30
2024-04-16T00:42:58.438Z,97.40
2024-04-16T00:43:58.374Z,97.40
2024-04-16T00:44:58.361Z,97.40
2024-04-16T00:45:58.402Z,97.09
2024-04-16T00:46:58.387Z,96.98
2024-04-16T00:47:58.433Z,96.98
2024-04-16T00:48:58.337Z,96.57
2024-04-16T00:49:58.298Z,96.51
2024-04-16T00:50:58.398Z,96.92
2024-04-16T00:51:58.305Z,97.24
2024-04-16T00:52:58.264Z,97.50
2024-04-16T00:53:58.240Z,97.50
2024-04-16T00:54:58.271Z,97.61
2024-04-16T00:55:58.243Z,97.61
2024-04-16T00:56:58.214Z,97.55
2024-04-16T00:57:58.216Z,97.75
2024-04-16T00:58:58.169Z,98.27
2024-04-16T00:59:58.166Z,98.17
2024-04-16T01:00:58.212Z,98.27
2024-04-16T01:01:58.135Z,98.48
2024-04-16T01:02:58.175Z,98.69
2024-04-16T01:03:58.448Z,99.11
2024-04-16T01:04:58.156Z,99.42
2024-04-16T01:05:58.081Z,99.84
2024-04-16T01:06:58.215Z,99.90
2024-04-16T01:07:58.067Z,99.68
2024-04-16T01:08:58.042Z,99.52
2024-04-16T01:09:58.045Z,99.37
2024-04-16T01:10:58.174Z,99.27
2024-04-16T01:11:58.005Z,99.37
2024-04-16T01:12:58.073Z,99.27
2024-04-16T01:13:57.997Z,98.96
2024-04-16T01:14:57.957Z,98.65
2024-04-16T01:15:57.950Z,98.65
2024-04-16T01:16:57.947Z,98.65
2024-04-16T01:17:58.019Z,98.75
2024-04-16T01:18:57.968Z,98.65
2024-04-16T01:19:57.895Z,98.65
2024-04-16T01:20:57.888Z,98.65
2024-04-16T01:21:58.028Z,98.75
2024-04-16T01:22:57.895Z,98.85
2024-04-16T01:23:57.850Z,98.75
2024-04-16T01:24:57.836Z,98.75
2024-04-16T01:25:57.827Z,98.96
2024-04-16T01:26:57.808Z,99.06
2024-04-16T01:27:57.806Z,99.16
2024-04-16T01:28:57.798Z,99.12
2024-04-16T01:29:57.772Z,99.16
2024-04-16T01:30:57.758Z,99.06
2024-04-16T01:31:57.751Z,99.02
2024-04-16T01:32:57.815Z,99.12
2024-04-16T01:33:57.718Z,98.75
2024-04-16T01:34:57.709Z,98.65
2024-04-16T01:35:57.693Z,98.54
2024-04-16T01:36:57.674Z,98.75
2024-04-16T01:37:57.666Z,99.12
2024-04-16T01:38:57.663Z,99.33
2024-04-16T01:39:57.638Z,99.43
2024-04-16T01:40:57.616Z,99.16
2024-04-16T01:41:57.610Z,98.96
2024-04-16T01:42:57.592Z,98.96
2024-04-16T01:43:57.591Z,98.96
2024-04-16T01:44:57.579Z,99.02
2024-04-16T01:45:57.558Z,99.16
2024-04-16T01:46:57.558Z,99.22
2024-04-16T01:47:57.631Z,99.33
2024-04-16T01:48:59.738Z,99.22
2024-04-16T01:49:57.516Z,99.22
2024-04-16T01:50:57.500Z,99.33
2024-04-16T01:51:57.475Z,99.33
2024-04-16T01:52:57.467Z,99.02
2024-04-16T01:53:57.455Z,98.91
2024-04-16T01:54:57.434Z,98.81
2024-04-16T01:55:57.439Z,98.71
2024-04-16T01:56:57.410Z,98.50
2024-04-16T01:57:57.401Z,98.50
2024-04-16T01:58:57.386Z,98.55
2024-04-16T01:59:57.367Z,98.55
2024-04-16T02:00:57.522Z,98.71
2024-04-16T02:01:57.344Z,98.29
2024-04-16T02:02:57.347Z,97.98
2024-04-16T02:03:57.375Z,98.08
2024-04-16T02:04:57.354Z,98.13
2024-04-16T02:05:57.287Z,98.23
2024-04-16T02:06:57.282Z,98.33
2024-04-16T02:07:57.263Z,98.44
2024-04-16T02:08:57.265Z,98.54
2024-04-16T02:09:57.236Z,98.65
2024-04-16T02:10:57.234Z,98.96
2024-04-16T02:11:57.265Z,99.16
2024-04-16T02:12:57.198Z,99.16
2024-04-16T02:13:57.192Z,99.27
2024-04-16T02:14:57.199Z,99.27
2024-04-16T02:15:57.165Z,99.37
2024-04-16T02:16:57.187Z,99.48
2024-04-16T02:17:57.266Z,99.37
2024-04-16T02:18:57.122Z,99.37
2024-04-16T02:19:57.112Z,99.37
2024-04-16T02:20:57.098Z,99.16
2024-04-16T02:21:59.765Z,99.16
2024-04-16T02:22:57.070Z,99.27
2024-04-16T02:23:57.060Z,99.37
2024-04-16T02:24:57.042Z,99.37
2024-04-16T02:25:57.027Z,99.37
2024-04-16T02:26:57.019Z,99.48
2024-04-16T02:27:57.006Z,99.16
2024-04-16T02:28:57.014Z,99.06
2024-04-16T02:29:56.982Z,99.06
2024-04-16T02:30:56.975Z,98.85
2024-04-16T02:31:57.001Z,98.96
2024-04-16T02:32:56.981Z,99.06
2024-04-16T02:33:56.923Z,98.96
2024-04-16T02:34:56.916Z,98.96
2024-04-16T02:35:56.901Z,99.16
2024-04-16T02:36:56.893Z,99.48
2024-04-16T02:37:56.869Z,99.37
2024-04-16T02:38:56.860Z,98.96
2024-04-16T02:39:56.847Z,98.85
2024-04-16T02:40:56.831Z,99.02
2024-04-16T02:41:56.820Z,99.02
2024-04-16T02:42:56.809Z,98.91
2024-04-16T02:43:56.844Z,98.91
2024-04-16T02:44:56.776Z,99.02
2024-04-16T02:45:56.759Z,98.91
2024-04-16T02:46:56.778Z,99.02
2024-04-16T02:47:56.754Z,99.02
2024-04-16T02:48:56.767Z,98.29
2024-04-16T02:49:56.712Z,98.19
2024-04-16T02:50:56.696Z,98.81
2024-04-16T02:51:56.685Z,99.22
2024-04-16T02:52:56.673Z,99.43
2024-04-16T02:53:56.667Z,99.64
2024-04-16T02:54:56.650Z,99.95
2024-04-16T02:55:56.629Z,99.99
2024-04-16T02:56:56.624Z,99.95
2024-04-16T02:57:56.603Z,99.64
2024-04-16T02:58:56.594Z,99.22
2024-04-16T02:59:56.584Z,98.71
2024-04-16T03:00:56.592Z,98.91
2024-04-16T03:01:56.602Z,99.02
2024-04-16T03:02:56.607Z,98.97
2024-04-16T03:03:56.538Z,98.29
2024-04-16T03:04:56.537Z,97.88
2024-04-16T03:05:56.503Z,97.77
2024-04-16T03:06:56.493Z,97.92
2024-04-16T03:07:56.482Z,97.88
2024-04-16T03:08:56.491Z,98.08
2024-04-16T03:09:56.455Z,98.39
2024-04-16T03:10:56.468Z,98.81
2024-04-16T03:11:56.428Z,98.81
2024-04-16T03:12:56.424Z,98.71
2024-04-16T03:13:56.405Z,98.91
2024-04-16T03:14:56.392Z,98.91
2024-04-16T03:15:56.418Z,98.91
2024-04-16T03:16:56.483Z,98.91
2024-04-16T03:17:56.355Z,99.18
2024-04-16T03:18:56.333Z,99.28
2024-04-16T03:19:56.434Z,99.28
2024-04-16T03:20:56.334Z,99.28
2024-04-16T03:21:56.298Z,99.07
2024-04-16T03:22:56.284Z,99.07
2024-04-16T03:23:56.273Z,99.07
2024-04-16T03:24:56.253Z,99.07
2024-04-16T03:25:56.244Z,99.18
2024-04-16T03:26:56.231Z,98.97
2024-04-16T03:27:56.218Z,98.93
2024-04-16T03:28:56.225Z,98.72
2024-04-16T03:29:56.194Z,98.76
2024-04-16T03:30:56.215Z,98.66
2024-04-16T03:31:56.206Z,98.45
2024-04-16T03:32:56.220Z,98.61
2024-04-16T03:33:56.141Z,98.41
2024-04-16T03:34:56.126Z,97.83
2024-04-16T03:35:56.302Z,97.52
2024-04-16T03:36:56.121Z,97.52
2024-04-16T03:37:56.091Z,97.62
2024-04-16T03:38:56.079Z,97.72
2024-04-16T03:39:56.069Z,97.62
2024-04-16T03:40:56.068Z,97.62
2024-04-16T03:41:56.043Z,97.62
2024-04-16T03:42:56.027Z,97.52
2024-04-16T03:43:57.289Z,97.31
2024-04-16T03:44:56.013Z,97.52
2024-04-16T03:45:55.982Z,97.62
2024-04-16T03:46:56.015Z,97.68
2024-04-16T03:47:56.051Z,97.68
2024-04-16T03:48:55.946Z,97.68
2024-04-16T03:49:55.937Z,97.78
2024-04-16T03:50:55.923Z,97.78
2024-04-16T03:51:55.915Z,97.68
2024-04-16T03:52:55.905Z,97.78
2024-04-16T03:53:55.887Z,97.99
2024-04-16T03:54:55.867Z,97.78
2024-04-16T03:55:55.857Z,97.52
2024-04-16T03:56:55.844Z,97.31
2024-04-16T03:57:55.829Z,97.00
2024-04-16T03:58:55.819Z,97.31
2024-04-16T03:59:55.801Z,97.20
2024-04-16T04:00:55.813Z,97.52
2024-04-16T04:01:55.799Z,97.83
2024-04-16T04:02:55.846Z,97.83
2024-04-16T04:03:55.786Z,97.93
2024-04-16T04:04:55.827Z,98.24
2024-04-16T04:05:55.752Z,98.45
2024-04-16T04:06:55.716Z,98.35
2024-04-16T04:07:55.716Z,98.45
2024-04-16T04:08:55.722Z,98.66
2024-04-16T04:09:55.681Z,98.45
2024-04-16T04:10:55.740Z,97.62
2024-04-16T04:11:55.657Z,97.41
2024-04-16T04:12:55.641Z,97.20
2024-04-16T04:13:55.623Z,97.31
2024-04-16T04:14:55.613Z,97.31
2024-04-16T04:15:55.603Z,97.41
2024-04-16T04:16:55.615Z,97.41
2024-04-16T04:17:55.715Z,97.78
2024-04-16T04:18:55.562Z,97.93
2024-04-16T04:19:55.551Z,97.72
2024-04-16T04:20:55.533Z,97.31
2024-04-16T04:21:55.527Z,97.20
2024-04-16T04:22:55.513Z,97.27
2024-04-16T04:23:55.514Z,97.37
2024-04-16T04:24:55.510Z,96.85
2024-04-16T04:25:55.481Z,96.44
2024-04-16T04:26:55.470Z,96.54
2024-04-16T04:27:55.440Z,96.44
2024-04-16T04:28:55.434Z,96.75
2024-04-16T04:29:55.417Z,96.85
2024-04-16T04:30:55.401Z,97.06
2024-04-16T04:31:55.417Z,97.06
2024-04-16T04:32:55.387Z,96.79
2024-04-16T04:33:55.358Z,95.86
2024-04-16T04:34:55.349Z,95.65
2024-04-16T04:35:55.341Z,95.54
2024-04-16T04:36:55.347Z,95.54
2024-04-16T04:37:55.311Z,95.96
2024-04-16T04:38:55.294Z,96.06
2024-04-16T04:39:55.288Z,95.96
2024-04-16T04:40:55.287Z,96.12
2024-04-16T04:41:55.256Z,96.58
2024-04-16T04:42:55.249Z,96.06
2024-04-16T04:43:55.227Z,96.37
2024-04-16T04:44:55.225Z,96.89
2024-04-16T04:45:55.211Z,97.41
2024-04-16T04:46:55.188Z,97.89
2024-04-16T04:47:55.281Z,98.41
2024-04-16T04:48:55.184Z,98.24
2024-04-16T04:49:55.173Z,97.52
2024-04-16T04:50:55.143Z,97.31
2024-04-16T04:51:55.134Z,97.41
2024-04-16T04:52:55.119Z,97.72
2024-04-16T04:53:55.866Z,98.14
2024-04-16T04:54:55.093Z,97.93
2024-04-16T04:55:55.103Z,97.52
2024-04-16T04:56:55.086Z,97.31
2024-04-16T04:57:55.051Z,97.31
2024-04-16T04:58:55.038Z,96.89
2024-04-16T04:59:55.027Z,96.89
2024-04-16T05:00:55.063Z,97.00
2024-04-16T05:01:55.108Z,97.41
2024-04-16T05:02:55.072Z,97.52
2024-04-16T05:03:54.994Z,97.00
2024-04-16T05:04:55.012Z,97.20
2024-04-16T05:05:54.955Z,97.47
2024-04-16T05:06:54.927Z,97.78
2024-04-16T05:07:54.922Z,97.99
2024-04-16T05:08:54.908Z,97.78
2024-04-16T05:09:54.901Z,97.00
2024-04-16T05:10:55.321Z,96.37
2024-04-16T05:11:54.870Z,96.69
2024-04-16T05:12:54.868Z,96.89
2024-04-16T05:13:54.843Z,97.00
2024-04-16T05:14:54.826Z,97.00
2024-04-16T05:15:54.827Z,96.37
2024-04-16T05:16:54.836Z,96.27
2024-04-16T05:17:54.894Z,96.37
2024-04-16T05:18:54.776Z,96.27
2024-04-16T05:19:54.776Z,96.58
2024-04-16T05:20:54.751Z,96.17
2024-04-16T05:21:54.737Z,95.03
2024-04-16T05:22:54.723Z,94.20
2024-04-16T05:23:54.722Z,94.30
2024-04-16T05:24:54.716Z,94.82
2024-04-16T05:25:55.852Z,95.03
2024-04-16T05:26:54.675Z,95.44
2024-04-16T05:27:54.686Z,96.06
2024-04-16T05:28:54.672Z,96.06
2024-04-16T05:29:54.637Z,95.54
2024-04-16T05:30:54.629Z,95.34
2024-04-16T05:31:54.635Z,95.86
2024-04-16T05:32:54.803Z,96.37
2024-04-16T05:33:54.595Z,96.79
2024-04-16T05:34:54.568Z,97.00
2024-04-16T05:35:57.144Z,96.89
2024-04-16T05:36:54.550Z,96.79
2024-04-16T05:37:54.526Z,97.00
2024-04-16T05:38:54.518Z,97.10
2024-04-16T05:39:54.503Z,97.10
2024-04-16T05:40:56.244Z,97.20
2024-04-16T05:41:54.472Z,97.00
2024-04-16T05:42:54.467Z,97.10
2024-04-16T05:43:54.484Z,96.58
2024-04-16T05:44:54.494Z,96.58
2024-04-16T05:45:54.423Z,96.79
2024-04-16T05:46:54.406Z,97.31
2024-04-16T05:47:54.503Z,96.79
2024-04-16T05:48:54.382Z,96.37
2024-04-16T05:49:54.369Z,96.48
2024-04-16T05:50:54.364Z,96.37
2024-04-16T05:51:54.383Z,96.69
2024-04-16T05:52:54.345Z,97.16
2024-04-16T05:53:54.372Z,97.16
2024-04-16T05:54:54.297Z,97.16
2024-04-16T05:55:54.292Z,97.27
2024-04-16T05:56:54.280Z,97.37
2024-04-16T05:57:54.272Z,97.06
2024-04-16T05:58:54.252Z,96.54
2024-04-16T05:59:54.232Z,96.23
2024-04-16T06:00:54.257Z,96.12
2024-04-16T06:01:54.295Z,95.50
2024-04-16T06:02:54.223Z,95.09
2024-04-16T06:03:54.225Z,95.36
2024-04-16T06:04:54.251Z,94.94
2024-04-16T06:05:54.157Z,94.73
2024-04-16T06:06:54.143Z,94.53
2024-04-16T06:07:54.125Z,94.84
2024-04-16T06:08:54.131Z,94.63
2024-04-16T06:09:54.103Z,94.11
2024-04-16T06:10:54.086Z,94.21
2024-04-16T06:11:54.111Z,94.94
2024-04-16T06:12:54.064Z,94.84
2024-04-16T06:13:54.207Z,94.94
2024-04-16T06:14:54.037Z,95.20
2024-04-16T06:15:54.048Z,94.73
2024-04-16T06:16:54.068Z,94.27
2024-04-16T06:17:54.059Z,94.06
2024-04-16T06:18:53.983Z,93.44
2024-04-16T06:19:53.988Z,93.23
2024-04-16T06:20:53.956Z,92.61
2024-04-16T06:21:53.942Z,92.10
2024-04-16T06:22:56.329Z,91.06
2024-04-16T06:23:53.920Z,91.58
2024-04-16T06:24:53.903Z,91.58
2024-04-16T06:25:53.892Z,91.89
2024-04-16T06:26:53.932Z,92.20
2024-04-16T06:27:53.872Z,91.37
2024-04-16T06:28:53.870Z,91.68
2024-04-16T06:29:53.848Z,91.27
2024-04-16T06:30:53.824Z,91.12
2024-04-16T06:31:53.875Z,90.62
2024-04-16T06:32:53.926Z,88.39
2024-04-16T06:33:53.787Z,85.86
2024-04-16T06:34:53.778Z,85.44
2024-04-16T06:35:53.760Z,81.27
2024-04-16T06:36:53.748Z,80.93
2024-04-16T06:37:53.741Z,79.75
2024-04-16T06:38:53.727Z,78.20
2024-04-16T06:39:53.721Z,76.07
2024-04-16T06:40:53.697Z,76.59
2024-04-16T06:41:53.690Z,76.14
2024-04-16T06:42:53.672Z,75.08
2024-04-16T06:43:53.665Z,74.98
2024-04-16T06:44:53.648Z,74.74
2024-04-16T06:45:53.632Z,73.30
2024-04-16T06:46:53.628Z,68.87
2024-04-16T06:47:53.667Z,66.31
2024-04-16T06:49:00.368Z,65.28
2024-04-16T06:49:54.660Z,67.11
2024-04-16T06:50:53.563Z,68.79
2024-04-16T06:51:53.545Z,71.28
2024-04-16T06:52:53.540Z,69.74
2024-04-16T06:53:53.531Z,71.11
2024-04-16T06:54:53.510Z,72.00
2024-04-16T06:55:55.654Z,70.94
2024-04-16T06:56:53.496Z,72.78
2024-04-16T06:57:54.264Z,74.40
2024-04-16T06:58:53.458Z,73.36
2024-04-16T06:59:53.442Z,72.38
2024-04-16T07:00:53.444Z,72.75
2024-04-16T07:01:53.672Z,74.88
2024-04-16T07:02:53.452Z,74.91
2024-04-16T07:03:53.423Z,75.36
2024-04-16T07:04:53.394Z,76.67
2024-04-16T07:05:53.410Z,77.42
2024-04-16T07:06:53.357Z,77.84
2024-04-16T07:07:53.359Z,77.46
2024-04-16T07:08:53.328Z,77.19
2024-04-16T07:09:53.327Z,74.84
2024-04-16T07:10:53.410Z,69.71
2024-04-16T07:11:53.418Z,62.85
2024-04-16T07:12:53.286Z,64.36
2024-04-16T07:13:53.279Z,62.23
2024-04-16T07:14:53.251Z,61.13
2024-04-16T07:15:53.240Z,59.08
2024-04-16T07:16:53.216Z,56.58
2024-04-16T07:17:53.357Z,58.89
2024-04-16T07:18:53.229Z,60.93
2024-04-16T07:19:53.183Z,59.53
2024-04-16T07:20:53.295Z,57.78
2024-04-16T07:21:53.168Z,59.16
2024-04-16T07:22:53.171Z,56.07
2024-04-16T07:23:53.131Z,58.91
2024-04-16T07:24:53.120Z,57.04
2024-04-16T07:25:53.106Z,54.92
2024-04-16T07:26:53.105Z,54.72
2024-04-16T07:27:53.082Z,55.96
2024-04-16T07:28:53.071Z,54.85
2024-04-16T07:29:53.047Z,55.13
2024-04-16T07:30:58.215Z,54.66
2024-04-16T07:31:54.130Z,55.07
2024-04-16T07:32:53.216Z,57.14
2024-04-16T07:33:53.109Z,53.78
2024-04-16T07:34:54.350Z,54.49
2024-04-16T07:35:52.970Z,56.63
2024-04-16T07:36:52.982Z,57.12
2024-04-16T07:37:52.937Z,58.57
2024-04-16T07:38:52.975Z,54.74
2024-04-16T07:39:52.920Z,52.68
2024-04-16T07:40:52.909Z,52.91
2024-04-16T07:41:52.919Z,53.22
2024-04-16T07:42:52.906Z,52.02
2024-04-16T07:43:52.903Z,52.12
2024-04-16T07:44:52.851Z,52.17
2024-04-16T07:45:52.842Z,49.45
2024-04-16T07:46:52.901Z,51.36
2024-04-16T07:47:52.937Z,50.44
2024-04-16T07:48:54.862Z,50.95
2024-04-16T07:49:52.784Z,50.51
2024-04-16T07:50:52.770Z,54.90
2024-04-16T07:51:52.753Z,56.30
2024-04-16T07:52:52.764Z,57.97
2024-04-16T07:53:52.741Z,56.15
2024-04-16T07:54:52.724Z,54.33
2024-04-16T07:55:52.717Z,55.33
2024-04-16T07:56:52.703Z,55.92
2024-04-16T07:57:52.707Z,55.76
2024-04-16T07:58:52.667Z,54.59
2024-04-16T07:59:52.659Z,54.67
2024-04-16T08:00:52.677Z,55.30
2024-04-16T08:01:52.673Z,56.23
2024-04-16T08:02:52.720Z,55.49
2024-04-16T08:03:52.643Z,58.51
2024-04-16T08:04:52.638Z,57.87
2024-04-16T08:05:52.580Z,58.07
2024-04-16T08:06:52.575Z,59.47
2024-04-16T08:07:52.563Z,58.46
2024-04-16T08:08:52.667Z,57.66
2024-04-16T08:09:52.531Z,59.25
2024-04-16T08:10:52.583Z,59.44
2024-04-16T08:11:52.498Z,57.56
2024-04-16T08:12:52.491Z,57.03
2024-04-16T08:13:52.567Z,56.15
2024-04-16T08:14:52.465Z,56.56
2024-04-16T08:15:52.451Z,59.71
2024-04-16T08:16:52.618Z,57.61
2024-04-16T08:17:52.449Z,58.38
2024-04-16T08:18:52.416Z,58.64
2024-04-16T08:19:52.443Z,60.49
2024-04-16T08:20:52.397Z,59.48
2024-04-16T08:21:54.609Z,60.03
2024-04-16T08:22:52.432Z,59.23
2024-04-16T08:23:52.365Z,59.59
2024-04-16T08:24:52.363Z,60.16
2024-04-16T08:25:52.324Z,59.95
2024-04-16T08:26:52.315Z,59.31
2024-04-16T08:27:52.296Z,60.92
2024-04-16T08:28:52.290Z,59.77
2024-04-16T08:29:52.275Z,58.97
2024-04-16T08:30:52.267Z,59.36
2024-04-16T08:31:52.281Z,62.11
2024-04-16T08:32:52.372Z,56.59
2024-04-16T08:33:52.363Z,56.82
2024-04-16T08:34:52.340Z,57.79
2024-04-16T08:35:52.247Z,59.08
2024-04-16T08:36:52.179Z,59.28
2024-04-16T08:37:52.268Z,60.05
2024-04-16T08:38:52.181Z,59.28
2024-04-16T08:39:52.142Z,58.89
2024-04-16T08:40:52.143Z,59.07
2024-04-16T08:41:52.128Z,58.22
2024-04-16T08:42:52.128Z,55.46
2024-04-16T08:43:52.259Z,57.53
2024-04-16T08:44:52.094Z,57.94
2024-04-16T08:45:52.067Z,58.07
2024-04-16T08:46:52.140Z,57.20
2024-04-16T08:47:52.101Z,57.54
2024-04-16T08:48:52.060Z,58.80
2024-04-16T08:49:52.217Z,60.23
2024-04-16T08:50:52.052Z,60.05
2024-04-16T08:51:51.997Z,60.29
2024-04-16T08:52:51.978Z,61.32
2024-04-16T08:53:51.957Z,61.14
2024-04-16T08:54:51.969Z,60.42
2024-04-16T08:55:54.803Z,60.91
2024-04-16T08:56:51.936Z,61.72
2024-04-16T08:57:51.912Z,61.18
2024-04-16T08:58:51.905Z,59.91
2024-04-16T08:59:51.882Z,61.93
2024-04-16T09:00:51.890Z,61.62
2024-04-16T09:01:51.884Z,61.79
2024-04-16T09:02:51.852Z,62.40
2024-04-16T09:03:51.859Z,63.87
2024-04-16T09:04:51.974Z,65.00
2024-04-16T09:05:54.435Z,65.35
2024-04-16T09:06:51.817Z,63.46
2024-04-16T09:07:51.814Z,65.20
2024-04-16T09:09:01.452Z,65.95
2024-04-16T09:09:52.780Z,65.86
2024-04-16T09:10:51.943Z,65.31
2024-04-16T09:11:53.960Z,65.41
2024-04-16T09:12:51.733Z,65.08
2024-04-16T09:13:51.737Z,64.39
2024-04-16T09:14:51.699Z,64.63
2024-04-16T09:15:51.679Z,63.57
2024-04-16T09:16:51.815Z,64.75
2024-04-16T09:17:54.932Z,64.72
2024-04-16T09:18:51.639Z,61.61
2024-04-16T09:19:51.708Z,61.41
2024-04-16T09:20:51.615Z,60.63
2024-04-16T09:21:51.601Z,61.20
2024-04-16T09:22:51.588Z,62.51
2024-04-16T09:23:51.572Z,61.46
2024-04-16T09:24:51.559Z,60.36
2024-04-16T09:25:51.602Z,60.70
2024-04-16T09:26:51.532Z,60.31
2024-04-16T09:27:51.527Z,61.71
2024-04-16T09:28:51.656Z,62.09
2024-04-16T09:29:51.515Z,60.55
2024-04-16T09:30:51.492Z,60.96
2024-04-16T09:31:51.464Z,60.55
2024-04-16T09:32:51.490Z,62.19
2024-04-16T09:33:51.491Z,61.61
2024-04-16T09:34:51.458Z,62.60
2024-04-16T09:35:51.420Z,61.68
2024-04-16T09:36:51.404Z,61.35
2024-04-16T09:37:51.497Z,61.65
2024-04-16T09:38:51.376Z,61.58
2024-04-16T09:39:51.366Z,62.75
2024-04-16T09:40:51.393Z,61.21
2024-04-16T09:41:51.353Z,60.98
2024-04-16T09:42:51.328Z,60.88
2024-04-16T09:43:51.449Z,60.88
2024-04-16T09:44:51.306Z,61.39
2024-04-16T09:45:51.282Z,63.51
2024-04-16T09:46:54.459Z,60.31
2024-04-16T09:47:51.378Z,60.49
2024-04-16T09:48:51.250Z,59.05
2024-04-16T09:50:02.671Z,58.64
2024-04-16T09:50:56.131Z,60.89
2024-04-16T09:51:51.206Z,59.69
2024-04-16T09:52:51.206Z,62.02
2024-04-16T09:53:51.180Z,60.07
2024-04-16T09:54:51.167Z,59.97
2024-04-16T09:55:51.330Z,58.40
2024-04-16T09:56:51.141Z,58.54
2024-04-16T09:57:51.139Z,58.95
2024-04-16T09:58:51.433Z,59.43
2024-04-16T09:59:51.102Z,58.92
2024-04-16T10:00:51.158Z,59.89
2024-04-16T10:01:51.101Z,58.49
2024-04-16T10:02:51.114Z,59.92
2024-04-16T10:03:51.159Z,59.72
2024-04-16T10:04:51.241Z,59.52
2024-04-16T10:05:51.034Z,58.41
2024-04-16T10:06:51.088Z,60.16
2024-04-16T10:07:51.000Z,59.06
2024-04-16T10:08:51.018Z,59.39
2024-04-16T10:09:50.988Z,60.29
2024-04-16T10:10:51.172Z,59.16
2024-04-16T10:11:51.001Z,61.29
2024-04-16T10:12:50.970Z,60.47
2024-04-16T10:13:50.926Z,59.57
2024-04-16T10:14:50.909Z,59.98
2024-04-16T10:15:50.898Z,59.57
2024-04-16T10:16:50.896Z,62.24
2024-04-16T10:17:50.962Z,61.00
2024-04-16T10:18:50.873Z,62.24
2024-04-16T10:19:50.897Z,61.00
2024-04-16T10:20:50.828Z,61.18
2024-04-16T10:21:50.848Z,60.77
2024-04-16T10:22:50.890Z,61.08
2024-04-16T10:23:50.799Z,60.60
2024-04-16T10:24:50.790Z,61.42
2024-04-16T10:25:50.880Z,60.19
2024-04-16T10:26:50.756Z,60.52
2024-04-16T10:27:50.742Z,61.76
2024-04-16T10:28:50.828Z,61.86
2024-04-16T10:29:50.721Z,62.16
2024-04-16T10:30:50.702Z,61.76
2024-04-16T10:31:50.696Z,62.51
2024-04-16T10:32:50.776Z,62.71
2024-04-16T10:33:50.758Z,61.68
2024-04-16T10:34:50.656Z,61.58
2024-04-16T10:35:50.642Z,62.60
2024-04-16T10:36:50.630Z,62.60
2024-04-16T10:37:50.619Z,62.60
2024-04-16T10:38:50.608Z,62.23
2024-04-16T10:39:50.586Z,62.43
2024-04-16T10:40:50.605Z,62.56
2024-04-16T10:41:50.556Z,64.41
2024-04-16T10:42:50.551Z,64.83
2024-04-16T10:43:50.555Z,63.69
2024-04-16T10:44:50.521Z,63.87
2024-04-16T10:45:50.635Z,63.87
2024-04-16T10:46:50.666Z,64.28
2024-04-16T10:47:50.577Z,63.84
2024-04-16T10:48:50.485Z,63.22
2024-04-16T10:49:50.495Z,64.04
2024-04-16T10:50:50.454Z,62.71
2024-04-16T10:51:50.517Z,62.60
2024-04-16T10:52:50.507Z,62.63
2024-04-16T10:53:50.409Z,63.25
2024-04-16T10:54:51.146Z,62.53
2024-04-16T10:55:50.565Z,64.25
2024-04-16T10:56:50.492Z,62.81
2024-04-16T10:58:50.399Z,64.56
2024-04-16T10:59:58.121Z,62.19
2024-04-16T11:00:51.357Z,63.53
2024-04-16T11:01:50.336Z,61.79
2024-04-16T11:02:50.359Z,62.60
2024-04-16T11:03:50.323Z,61.51
2024-04-16T11:04:50.298Z,62.51
2024-04-16T11:05:50.295Z,62.40
2024-04-16T11:06:50.800Z,63.22
2024-04-16T11:07:50.229Z,63.22
2024-04-16T11:08:50.220Z,62.92
2024-04-16T11:09:50.234Z,63.02
2024-04-16T11:10:50.356Z,64.15
2024-04-16T11:11:50.187Z,64.56
2024-04-16T11:12:50.903Z,64.04
2024-04-16T11:13:50.233Z,62.71
2024-04-16T11:14:50.147Z,63.46
2024-04-16T11:15:50.139Z,64.31
2024-04-16T11:16:50.130Z,63.59
2024-04-16T11:17:50.130Z,64.21
2024-04-16T11:18:50.087Z,64.75
2024-04-16T11:19:50.104Z,64.75
2024-04-16T11:20:50.106Z,65.78
2024-04-16T11:21:50.041Z,65.99
2024-04-16T11:22:50.065Z,65.99
2024-04-16T11:23:50.026Z,65.16
2024-04-16T11:24:50.009Z,64.96
2024-04-16T11:25:50.077Z,65.26
2024-04-16T11:26:49.975Z,65.26
2024-04-16T11:27:50.172Z,66.06
2024-04-16T11:28:49.961Z,66.06
2024-04-16T11:29:49.943Z,65.52
2024-04-16T11:30:49.964Z,64.69
2024-04-16T11:31:49.977Z,65.20
2024-04-16T11:32:50.008Z,65.62
2024-04-16T11:33:50.138Z,65.52
2024-04-16T11:34:50.298Z,66.37
2024-04-16T11:35:49.860Z,66.47
2024-04-16T11:36:49.857Z,65.75
2024-04-16T11:37:49.921Z,66.37
2024-04-16T11:38:49.843Z,66.58
2024-04-16T11:39:49.818Z,65.37
2024-04-16T11:40:56.831Z,66.81
2024-04-16T11:41:50.831Z,66.16
2024-04-16T11:42:49.773Z,65.95
2024-04-16T11:43:49.813Z,66.88
2024-04-16T11:44:49.755Z,66.78
2024-04-16T11:45:49.724Z,66.06
2024-04-16T11:46:49.808Z,66.34
2024-04-16T11:47:49.777Z,66.61
2024-04-16T11:48:49.987Z,65.86
2024-04-16T11:49:49.722Z,64.32
2024-04-16T11:50:49.660Z,64.43
2024-04-16T11:51:49.663Z,65.45
2024-04-16T11:52:49.890Z,65.35
2024-04-16T11:53:49.630Z,64.63
2024-04-16T11:54:49.608Z,64.84
2024-04-16T11:55:49.595Z,63.74
2024-04-16T11:56:49.594Z,64.87
2024-04-16T11:57:49.569Z,65.25
2024-04-16T11:58:49.632Z,65.83
2024-04-16T11:59:49.547Z,65.39
2024-04-16T12:00:49.603Z,66.19
2024-04-16T12:01:49.537Z,65.61
2024-04-16T12:02:49.514Z,62.23
2024-04-16T12:03:49.508Z,61.61
2024-04-16T12:04:49.568Z,63.84
2024-04-16T12:05:49.482Z,61.79
2024-04-16T12:06:49.454Z,61.61
2024-04-16T12:07:49.504Z,61.13
2024-04-16T12:08:49.452Z,62.36
2024-04-16T12:09:49.424Z,60.64
2024-04-16T12:10:49.444Z,60.88
2024-04-16T12:11:49.504Z,61.00
2024-04-16T12:12:49.378Z,60.91
2024-04-16T12:13:49.409Z,61.11
2024-04-16T12:14:49.350Z,60.52
2024-04-16T12:15:49.355Z,62.16
2024-04-16T12:16:49.574Z,60.96
2024-04-16T12:17:49.348Z,61.17
2024-04-16T12:18:49.295Z,61.68
2024-04-16T12:19:49.307Z,62.23
2024-04-16T12:20:49.663Z,62.12
2024-04-16T12:21:49.270Z,62.63
2024-04-16T12:22:49.314Z,61.61
2024-04-16T12:23:49.231Z,61.81
2024-04-16T12:24:49.243Z,62.33
2024-04-16T12:25:52.368Z,62.53
2024-04-16T12:26:49.207Z,63.25
2024-04-16T12:27:49.195Z,62.74
2024-04-16T12:28:49.231Z,62.84
2024-04-16T12:29:49.153Z,63.46
2024-04-16T12:30:49.162Z,63.15
2024-04-16T12:31:49.263Z,62.56
2024-04-16T12:32:58.150Z,62.23
2024-04-16T12:33:50.182Z,63.56
2024-04-16T12:34:49.198Z,63.05
2024-04-16T12:35:49.135Z,63.05
2024-04-16T12:36:49.065Z,63.97
2024-04-16T12:37:49.067Z,63.87
2024-04-16T12:38:49.053Z,63.67
2024-04-16T12:39:49.018Z,63.67
2024-04-16T12:40:49.053Z,62.84
2024-04-16T12:41:48.988Z,63.46
2024-04-16T12:42:48.987Z,63.87
2024-04-16T12:43:49.076Z,64.18
2024-04-16T12:44:48.953Z,64.07
2024-04-16T12:45:48.971Z,63.35
2024-04-16T12:46:48.978Z,64.41
2024-04-16T12:47:48.971Z,64.31
2024-04-16T12:48:48.986Z,64.62
2024-04-16T12:49:48.951Z,65.13
2024-04-16T12:50:48.904Z,65.31
2024-04-16T12:51:48.866Z,65.92
2024-04-16T12:52:48.920Z,65.83
2024-04-16T12:53:48.842Z,65.89